N27MB NONE-KFRG

Flight info

Callsign N27MB
Flight time N/A
Altitude
Route
Aircraft BE33/L-DOV/C

Departure

Time N/A
Airport NONE

Arrival

Time 2026-04-28 01:08
Airport Republic Airport (KFRG)
Time Latitude Longitude Altitude Speed Heading
2026-04-28 00:55 40.88530 -73.68917 9498 ft 151 kts 30°
2026-04-28 00:55 40.89425 -73.68195 9497 ft 151 kts 31°
2026-04-28 00:55 40.90319 -73.67472 9496 ft 151 kts 31°
2026-04-28 00:56 40.91212 -73.66750 9495 ft 151 kts 31°
2026-04-28 00:56 40.92153 -73.66204 9494 ft 149 kts
2026-04-28 00:56 40.93187 -73.66390 9494 ft 151 kts 351°
2026-04-28 00:56 40.94180 -73.66768 9493 ft 152 kts 335°
2026-04-28 00:57 40.95091 -73.67497 9492 ft 154 kts 331°
2026-04-28 00:57 40.95995 -73.68256 9492 ft 154 kts 330°
2026-04-28 00:57 40.96729 -73.69259 9490 ft 159 kts 294°
2026-04-28 00:57 40.96604 -73.70711 9489 ft 169 kts 239°
2026-04-28 00:58 40.95637 -73.71535 9486 ft 171 kts 187°
2026-04-28 00:58 40.94548 -73.71092 9484 ft 165 kts 134°
2026-04-28 00:58 40.93829 -73.69888 9261 ft 173 kts 121°
2026-04-28 00:58 40.93138 -73.68575 8880 ft 174 kts 121°
2026-04-28 00:59 40.92445 -73.67259 8503 ft 174 kts 121°
2026-04-28 00:59 40.91750 -73.65947 8131 ft 174 kts 121°
2026-04-28 00:59 40.91051 -73.64643 7775 ft 173 kts 120°
2026-04-28 00:59 40.90353 -73.63381 7406 ft 169 kts 121°
2026-04-28 01:00 40.89707 -73.62129 7040 ft 158 kts 105°
2026-04-28 01:00 40.89631 -73.60754 6683 ft 148 kts 82°
2026-04-28 01:00 40.89713 -73.59372 6180 ft 153 kts 81°
2026-04-28 01:00 40.89806 -73.57958 5680 ft 156 kts 81°
2026-04-28 01:01 40.89904 -73.56519 5185 ft 158 kts 81°
2026-04-28 01:01 40.90007 -73.55077 4677 ft 158 kts 81°
2026-04-28 01:01 40.90101 -73.53613 4170 ft 161 kts 90°
2026-04-28 01:01 40.89607 -73.52277 3666 ft 169 kts 130°
2026-04-28 01:02 40.88782 -73.51167 3165 ft 169 kts 131°
2026-04-28 01:02 40.88019 -73.50106 3018 ft 149 kts 131°
2026-04-28 01:02 40.87359 -73.49185 3010 ft 129 kts 132°
2026-04-28 01:02 40.86774 -73.48368 2999 ft 118 kts 131°
2026-04-28 01:03 40.86204 -73.47573 2985 ft 121 kts 131°
2026-04-28 01:03 40.85624 -73.46759 2979 ft 122 kts 130°
2026-04-28 01:03 40.85033 -73.45940 2978 ft 124 kts 131°
2026-04-28 01:03 40.84452 -73.45140 2981 ft 118 kts 131°
2026-04-28 01:04 40.83886 -73.44360 2976 ft 117 kts 131°
2026-04-28 01:04 40.83329 -73.43591 2978 ft 115 kts 136°
2026-04-28 01:04 40.82667 -73.42989 2973 ft 115 kts 144°
2026-04-28 01:04 40.81979 -73.42409 2876 ft 122 kts 146°
2026-04-28 01:05 40.81272 -73.41895 2751 ft 112 kts 152°
2026-04-28 01:05 40.80511 -73.41598 2516 ft 119 kts 171°
2026-04-28 01:05 40.79665 -73.41644 2221 ft 125 kts 182°
2026-04-28 01:05 40.78900 -73.41679 1927 ft 99 kts 176°
2026-04-28 01:06 40.78250 -73.41596 1601 ft 89 kts 170°
2026-04-28 01:06 40.77659 -73.41555 1363 ft 84 kts 177°
2026-04-28 01:06 40.77071 -73.41579 1160 ft 84 kts 174°
2026-04-28 01:06 40.76690 -73.41574 1040 ft 82 kts 174°
2026-04-28 01:07 40.76133 -73.41558 862 ft 79 kts 172°
2026-04-28 01:07 40.75590 -73.41510 701 ft 76 kts 174°
2026-04-28 01:07 40.75071 -73.41485 517 ft 74 kts 177°
2026-04-28 01:07 40.74577 -73.41475 350 ft 68 kts 179°
2026-04-28 01:08 40.73957 -73.41460 166 ft 66 kts 181°
2026-04-28 01:08 40.73522 -73.41446 79 ft 54 kts 176°
2026-04-28 01:08 40.73319 -73.41440 74 ft 11 kts 174°
2026-04-28 01:08 40.73276 -73.41428 70 ft 9 kts 148°
2026-04-28 01:09 40.73269 -73.41366 75 ft 6 kts 91°
2026-04-28 01:09 40.73290 -73.41339 76 ft 7 kts 358°
2026-04-28 01:09 40.73418 -73.41345 74 ft 23 kts 358°
2026-04-28 01:09 40.73508 -73.41348 75 ft 8 kts
2026-04-28 01:10 40.73533 -73.41304 78 ft 5 kts 166°
2026-04-28 01:10 40.73531 -73.41304 78 ft 0 kts 168°